createdAt,value
2018-02-14T00:01:35.315Z,101410.55
2018-02-14T00:04:04.170Z,101409.83
2018-02-14T00:06:32.711Z,101411.17
2018-02-14T00:09:01.449Z,101417.81
2018-02-14T00:11:30.196Z,101415.58
2018-02-14T00:13:58.708Z,101424.75
2018-02-14T00:16:27.728Z,101419.51
2018-02-14T00:18:56.521Z,101426.89
2018-02-14T00:21:24.937Z,101428.67
2018-02-14T00:23:53.365Z,101426.13
2018-02-14T00:26:22.131Z,101436.32
2018-02-14T00:28:50.560Z,101431.52
2018-02-14T00:31:18.986Z,101432.54
2018-02-14T00:33:48.338Z,101435.01
2018-02-14T00:36:16.763Z,101438.92
2018-02-14T00:38:45.193Z,101440.66
2018-02-14T00:41:13.837Z,101441.55
2018-02-14T00:43:42.287Z,101443.31
2018-02-14T00:46:10.730Z,101437.69
2018-02-14T00:48:39.722Z,101444.25
2018-02-14T00:51:08.193Z,101442.95
2018-02-14T00:53:37.217Z,101446.00
2018-02-14T00:56:06.763Z,101446.87
2018-02-14T00:58:35.245Z,101452.10
2018-02-14T01:01:03.793Z,101455.16
2018-02-14T01:03:32.480Z,101459.26
2018-02-14T01:06:00.989Z,101460.91
2018-02-14T01:08:29.828Z,101468.34
2018-02-14T01:10:58.461Z,101463.56
2018-02-14T01:13:26.872Z,101474.53
2018-02-14T01:15:55.265Z,101476.77
2018-02-14T01:18:24.075Z,101478.58
2018-02-14T01:20:52.536Z,101478.53
2018-02-14T01:23:20.954Z,101476.34
2018-02-14T01:25:50.261Z,101477.17
2018-02-14T01:28:18.697Z,101482.16
2018-02-14T01:30:47.113Z,101483.81
2018-02-14T01:33:16.040Z,101482.98
2018-02-14T01:35:44.462Z,101487.46
2018-02-14T01:38:12.881Z,101490.46
2018-02-14T01:40:48.256Z,101491.88
2018-02-14T01:43:16.688Z,101492.69
2018-02-14T01:45:45.113Z,101492.16
2018-02-14T01:48:13.578Z,101489.04
2018-02-14T01:50:41.993Z,101488.17
2018-02-14T01:53:10.442Z,101493.91
2018-02-14T01:55:39.255Z,101491.31
2018-02-14T01:58:07.677Z,101496.14
2018-02-14T02:00:36.307Z,101489.22
2018-02-14T02:03:05.694Z,101487.99
2018-02-14T02:05:34.145Z,101493.39
2018-02-14T02:08:02.628Z,101491.30
2018-02-14T02:10:31.555Z,101490.38
2018-02-14T02:13:00.036Z,101483.06
2018-02-14T02:15:28.797Z,101483.83
2018-02-14T02:17:57.361Z,101484.30
2018-02-14T02:20:25.805Z,101481.81
2018-02-14T02:22:54.294Z,101480.50
2018-02-14T02:25:22.816Z,101473.06
2018-02-14T02:27:51.507Z,101475.74
2018-02-14T02:30:20.121Z,101478.81
2018-02-14T02:32:49.343Z,101477.52
2018-02-14T02:35:18.760Z,101482.70
2018-02-14T02:37:49.051Z,101478.66
2018-02-14T02:40:29.218Z,101472.61
2018-02-14T02:42:57.664Z,101469.58
2018-02-14T02:45:30.068Z,101473.95
2018-02-14T02:47:58.491Z,101473.94
2018-02-14T02:50:26.930Z,101467.43
2018-02-14T02:52:55.750Z,101481.47
2018-02-14T02:55:24.166Z,101477.98
2018-02-14T02:57:52.599Z,101484.56
2018-02-14T03:00:21.059Z,101475.84
2018-02-14T03:02:49.501Z,101484.30
2018-02-14T03:05:17.937Z,101480.27
2018-02-14T03:07:46.802Z,101480.80
2018-02-14T03:10:15.251Z,101475.93
2018-02-14T03:12:43.696Z,101475.00
2018-02-14T03:15:12.184Z,101475.48
2018-02-14T03:17:40.614Z,101476.33
2018-02-14T03:20:09.112Z,101473.77
2018-02-14T03:22:39.109Z,101475.98
2018-02-14T03:25:07.522Z,101475.50
2018-02-14T03:27:36.001Z,101471.61
2018-02-14T03:30:04.632Z,101475.52
2018-02-14T03:32:33.168Z,101480.73
2018-02-14T03:35:01.644Z,101491.56
2018-02-14T03:37:30.405Z,101495.11
2018-02-14T03:39:58.858Z,101498.91
2018-02-14T03:42:27.404Z,101498.08
2018-02-14T03:44:56.777Z,101497.30
2018-02-14T03:47:25.211Z,101505.17
2018-02-14T03:49:53.663Z,101512.59
2018-02-14T03:52:22.184Z,101510.42
2018-02-14T03:54:50.754Z,101513.91
2018-02-14T03:57:19.210Z,101521.33
2018-02-14T03:59:47.883Z,101516.13
2018-02-14T04:02:16.364Z,101515.75
2018-02-14T04:04:44.808Z,101524.48
2018-02-14T04:07:13.397Z,101521.92
2018-02-14T04:09:41.841Z,101530.59
2018-02-14T04:12:10.426Z,101527.63
2018-02-14T04:14:39.637Z,101531.62
2018-02-14T04:17:08.121Z,101529.03
2018-02-14T04:19:36.569Z,101542.22
2018-02-14T04:22:05.467Z,101546.11
2018-02-14T04:24:34.130Z,101550.48
2018-02-14T04:27:02.885Z,101542.20
2018-02-14T04:29:32.320Z,101536.50
2018-02-14T04:32:00.912Z,101543.55
2018-02-14T04:34:30.242Z,101549.20
2018-02-14T04:36:58.768Z,101549.72
2018-02-14T04:39:27.407Z,101554.91
2018-02-14T04:41:55.989Z,101563.73
2018-02-14T04:44:24.874Z,101561.86
2018-02-14T04:46:53.320Z,101564.15
2018-02-14T04:49:21.831Z,101565.42
2018-02-14T04:51:50.466Z,101563.22
2018-02-14T04:54:18.898Z,101565.83
2018-02-14T04:56:51.687Z,101558.81
2018-02-14T04:59:21.473Z,101563.17
2018-02-14T05:02:06.728Z,101564.58
2018-02-14T05:04:35.257Z,101564.20
2018-02-14T05:07:03.746Z,101571.18
2018-02-14T05:09:32.189Z,101578.23
2018-02-14T05:12:01.828Z,101581.30
2018-02-14T05:14:30.300Z,101581.77
2018-02-14T05:16:58.727Z,101581.33
2018-02-14T05:19:27.376Z,101575.69
2018-02-14T05:21:55.865Z,101583.98
2018-02-14T05:24:24.295Z,101581.31
2018-02-14T05:26:52.948Z,101581.73
2018-02-14T05:29:21.375Z,101576.95
2018-02-14T05:31:50.365Z,101586.97
2018-02-14T05:34:19.007Z,101586.16
2018-02-14T05:36:47.438Z,101589.18
2018-02-14T05:39:15.868Z,101590.55
2018-02-14T05:41:44.593Z,101592.36
2018-02-14T05:44:13.028Z,101599.75
2018-02-14T05:46:41.466Z,101600.65
2018-02-14T05:49:10.068Z,101600.62
2018-02-14T05:51:38.583Z,101594.53
2018-02-14T05:54:07.109Z,101598.91
2018-02-14T05:56:35.639Z,101593.23
2018-02-14T05:59:04.114Z,101603.30
2018-02-14T06:01:32.609Z,101605.91
2018-02-14T06:04:01.535Z,101606.70
2018-02-14T06:06:30.598Z,101612.52
2018-02-14T06:08:59.166Z,101617.77
2018-02-14T06:11:27.743Z,101617.77
2018-02-14T06:13:56.197Z,101621.67
2018-02-14T06:16:25.603Z,101625.64
2018-02-14T06:18:54.210Z,101620.33
2018-02-14T06:21:22.646Z,101622.56
2018-02-14T06:23:51.104Z,101625.55
2018-02-14T06:26:19.600Z,101632.61
2018-02-14T06:28:48.027Z,101635.65
2018-02-14T06:31:16.476Z,101631.27
2018-02-14T06:33:44.941Z,101635.62
2018-02-14T06:36:14.154Z,101635.59
2018-02-14T06:38:42.602Z,101641.38
2018-02-14T06:41:11.076Z,101641.78
2018-02-14T06:43:39.633Z,101645.21
2018-02-14T06:46:08.074Z,101641.31
2018-02-14T06:48:36.550Z,101643.09
2018-02-14T06:51:04.978Z,101645.67
2018-02-14T06:53:34.466Z,101650.91
2018-02-14T06:56:03.191Z,101665.83
2018-02-14T06:58:31.877Z,101657.55
2018-02-14T07:01:00.530Z,101663.19
2018-02-14T07:03:29.173Z,101668.84
2018-02-14T07:05:57.746Z,101674.05
2018-02-14T07:08:26.172Z,101678.47
2018-02-14T07:10:54.815Z,101688.88
2018-02-14T07:13:25.605Z,101688.36
2018-02-14T07:15:54.093Z,101684.39
2018-02-14T07:18:22.989Z,101692.23
2018-02-14T07:20:51.445Z,101700.50
2018-02-14T07:23:25.494Z,101692.97
2018-02-14T07:25:53.975Z,101699.42
2018-02-14T07:28:22.409Z,101704.48
2018-02-14T07:30:52.084Z,101704.55
2018-02-14T07:33:20.507Z,101711.97
2018-02-14T07:35:48.930Z,101718.03
2018-02-14T07:38:17.432Z,101720.74
2018-02-14T07:40:45.907Z,101719.41
2018-02-14T07:43:15.273Z,101718.48
2018-02-14T07:45:43.848Z,101712.82
2018-02-14T07:48:12.700Z,101715.45
2018-02-14T07:50:41.153Z,101725.02
2018-02-14T07:53:09.643Z,101724.92
2018-02-14T07:55:38.468Z,101721.39
2018-02-14T07:58:07.766Z,101732.75
2018-02-14T08:00:36.437Z,101731.83
2018-02-14T08:03:05.624Z,101727.84
2018-02-14T08:05:34.118Z,101732.70
2018-02-14T08:08:02.705Z,101723.41
2018-02-14T08:10:32.825Z,101736.25
2018-02-14T08:13:01.915Z,101738.86
2018-02-14T08:15:31.622Z,101739.66
2018-02-14T08:18:00.126Z,101736.47
2018-02-14T08:20:28.889Z,101746.41
2018-02-14T08:22:57.520Z,101748.60
2018-02-14T08:25:25.949Z,101741.19
2018-02-14T08:27:55.252Z,101747.27
2018-02-14T08:30:23.868Z,101749.05
2018-02-14T08:32:52.259Z,101747.84
2018-02-14T08:35:20.681Z,101755.13
2018-02-14T08:37:49.276Z,101756.02
2018-02-14T08:40:17.757Z,101753.06
2018-02-14T08:42:46.165Z,101755.42
2018-02-14T08:45:15.129Z,101753.03
2018-02-14T08:47:43.565Z,101750.45
2018-02-14T08:50:12.301Z,101756.27
2018-02-14T08:52:41.240Z,101761.72
2018-02-14T08:55:09.778Z,101752.27
2018-02-14T08:57:38.359Z,101750.84
2018-02-14T09:00:06.857Z,101749.04
2018-02-14T09:02:35.445Z,101747.18
2018-02-14T09:05:04.123Z,101748.35
2018-02-14T09:07:33.010Z,101756.63
2018-02-14T09:10:01.821Z,101752.98
2018-02-14T09:12:30.279Z,101756.47
2018-02-14T09:14:58.863Z,101750.35
2018-02-14T09:17:27.323Z,101754.33
2018-02-14T09:19:55.756Z,101758.14
2018-02-14T09:22:25.149Z,101767.44
2018-02-14T09:24:53.620Z,101763.44
2018-02-14T09:27:22.061Z,101766.97
2018-02-14T09:29:50.806Z,101767.88
2018-02-14T09:32:19.261Z,101776.92
2018-02-14T09:34:47.714Z,101772.52
2018-02-14T09:37:16.220Z,101780.30
2018-02-14T09:39:44.699Z,101779.21
2018-02-14T09:42:13.253Z,101772.86
2018-02-14T09:44:41.971Z,101775.42
2018-02-14T09:47:10.431Z,101770.98
2018-02-14T09:49:38.987Z,101758.91
2018-02-14T09:52:07.742Z,101752.70
2018-02-14T09:54:36.301Z,101749.98
2018-02-14T09:57:04.818Z,101752.41
2018-02-14T09:59:33.807Z,101756.13
2018-02-14T10:02:02.417Z,101748.73
2018-02-14T10:04:31.878Z,101757.24
2018-02-14T10:07:01.180Z,101762.49
2018-02-14T10:09:30.670Z,101763.70
2018-02-14T10:11:59.111Z,101771.75
2018-02-14T10:14:27.914Z,101767.81
2018-02-14T10:16:56.337Z,101767.97
2018-02-14T10:19:24.786Z,101775.95
2018-02-14T10:21:53.311Z,101769.70
2018-02-14T10:24:21.735Z,101766.57
2018-02-14T10:26:50.183Z,101768.39
2018-02-14T10:29:19.367Z,101759.63
2018-02-14T10:31:47.792Z,101756.58
2018-02-14T10:34:16.196Z,101756.53
2018-02-14T10:36:45.023Z,101751.30
2018-02-14T10:39:13.491Z,101750.03
2018-02-14T10:41:41.903Z,101754.16
2018-02-14T10:44:10.358Z,101755.76
2018-02-14T10:46:39.093Z,101750.48
2018-02-14T10:49:07.534Z,101750.13
2018-02-14T10:51:36.178Z,101748.89
2018-02-14T10:54:04.651Z,101757.60
2018-02-14T10:56:33.344Z,101755.43
2018-02-14T10:59:01.887Z,101755.43
2018-02-14T11:01:36.898Z,101755.77
2018-02-14T11:04:11.303Z,101757.01
2018-02-14T11:06:39.896Z,101752.18
2018-02-14T11:09:08.527Z,101752.17
2018-02-14T11:11:37.026Z,101755.12
2018-02-14T11:14:05.460Z,101749.39
2018-02-14T11:16:34.243Z,101748.08
2018-02-14T11:19:03.124Z,101745.33
2018-02-14T11:21:33.298Z,101742.09
2018-02-14T11:24:02.394Z,101750.41
2018-02-14T11:26:31.458Z,101747.34
2018-02-14T11:28:59.976Z,101748.02
2018-02-14T11:31:28.502Z,101745.55
2018-02-14T11:33:57.130Z,101747.64
2018-02-14T11:36:25.569Z,101746.33
2018-02-14T11:38:54.028Z,101748.84
2018-02-14T11:41:22.682Z,101755.48
2018-02-14T11:43:51.088Z,101760.24
2018-02-14T11:46:19.507Z,101759.23
2018-02-14T11:48:48.061Z,101759.36
2018-02-14T11:51:16.677Z,101754.48
2018-02-14T11:53:45.115Z,101764.08
2018-02-14T11:56:13.664Z,101766.38
2018-02-14T11:58:42.182Z,101774.36
2018-02-14T12:01:10.641Z,101765.08
2018-02-14T12:03:41.341Z,101749.83
2018-02-14T12:06:09.898Z,101753.13
2018-02-14T12:08:38.490Z,101760.03
2018-02-14T12:11:06.993Z,101762.35
2018-02-14T12:13:35.467Z,101760.38
2018-02-14T12:16:04.090Z,101762.92
2018-02-14T12:18:33.452Z,101757.87
2018-02-14T12:21:02.101Z,101761.66
2018-02-14T12:23:31.059Z,101757.05
2018-02-14T12:26:01.614Z,101757.39
2018-02-14T12:28:30.076Z,101753.10
2018-02-14T12:30:58.733Z,101747.61
2018-02-14T12:33:27.749Z,101747.25
2018-02-14T12:35:56.165Z,101748.14
2018-02-14T12:38:24.574Z,101749.13
2018-02-14T12:40:53.088Z,101744.34
2018-02-14T12:43:21.491Z,101748.75
2018-02-14T12:45:49.945Z,101742.19
2018-02-14T12:48:19.789Z,101732.45
2018-02-14T12:50:48.237Z,101738.33
2018-02-14T12:53:16.651Z,101727.73
2018-02-14T12:55:45.281Z,101731.17
2018-02-14T12:58:13.684Z,101732.73
2018-02-14T13:00:42.096Z,101731.44
2018-02-14T13:03:11.740Z,101737.05
2018-02-14T13:05:40.171Z,101743.05
2018-02-14T13:08:08.644Z,101734.34
2018-02-14T13:10:38.171Z,101731.67
2018-02-14T13:13:07.175Z,101732.23
2018-02-14T13:15:35.927Z,101734.53
2018-02-14T13:18:05.854Z,101738.87
2018-02-14T13:20:34.376Z,101736.61
2018-02-14T13:23:02.911Z,101736.43
2018-02-14T13:25:32.211Z,101731.05
2018-02-14T13:28:00.795Z,101735.52
2018-02-14T13:30:29.222Z,101730.16
2018-02-14T13:32:57.720Z,101727.59
2018-02-14T13:35:26.137Z,101724.34
2018-02-14T13:37:54.581Z,101724.69
2018-02-14T13:40:23.087Z,101719.36
2018-02-14T13:42:51.529Z,101727.25
2018-02-14T13:45:19.934Z,101722.80
2018-02-14T13:47:49.493Z,101720.46
2018-02-14T13:50:18.003Z,101727.45
2018-02-14T13:52:46.415Z,101727.34
2018-02-14T13:55:14.924Z,101725.97
2018-02-14T13:57:43.378Z,101721.45
2018-02-14T14:00:11.865Z,101728.64
2018-02-14T14:02:40.411Z,101734.26
2018-02-14T14:05:09.028Z,101735.73
2018-02-14T14:07:37.607Z,101735.19
2018-02-14T14:10:06.502Z,101732.34
2018-02-14T14:12:34.983Z,101729.70
2018-02-14T14:15:03.667Z,101733.84
2018-02-14T14:17:32.168Z,101743.61
2018-02-14T14:20:00.631Z,101739.82
2018-02-14T14:22:29.350Z,101743.18
2018-02-14T14:24:58.098Z,101738.58
2018-02-14T14:27:26.513Z,101744.69
2018-02-14T14:29:55.175Z,101749.52
2018-02-14T14:32:23.826Z,101749.63
2018-02-14T14:34:52.244Z,101749.16
2018-02-14T14:37:20.713Z,101753.05
2018-02-14T14:39:49.535Z,101752.73
2018-02-14T14:42:18.321Z,101749.86
2018-02-14T14:44:46.751Z,101756.27
2018-02-14T14:47:17.017Z,101750.44
2018-02-14T14:49:45.425Z,101756.34
2018-02-14T14:52:13.844Z,101755.11
2018-02-14T14:54:43.732Z,101748.73
2018-02-14T14:57:12.155Z,101754.39
2018-02-14T14:59:40.617Z,101750.62
2018-02-14T15:02:09.182Z,101755.41
2018-02-14T15:04:37.667Z,101758.70
2018-02-14T15:07:06.183Z,101755.19
2018-02-14T15:09:35.690Z,101757.30
2018-02-14T15:12:04.621Z,101755.50
2018-02-14T15:14:33.198Z,101754.25
2018-02-14T15:17:01.790Z,101754.77
2018-02-14T15:19:30.243Z,101756.08
2018-02-14T15:21:58.671Z,101760.19
2018-02-14T15:24:27.127Z,101770.41
2018-02-14T15:26:55.548Z,101764.75
2018-02-14T15:29:23.981Z,101768.72
2018-02-14T15:31:52.865Z,101769.97
2018-02-14T15:34:21.296Z,101772.19
2018-02-14T15:36:49.713Z,101775.40
2018-02-14T15:39:18.337Z,101777.73
2018-02-14T15:41:46.814Z,101779.41
2018-02-14T15:44:15.786Z,101780.83
2018-02-14T15:46:45.993Z,101779.13
2018-02-14T15:49:14.621Z,101790.16
2018-02-14T15:51:43.132Z,101787.59
2018-02-14T15:54:11.928Z,101787.62
2018-02-14T15:56:40.362Z,101786.47
2018-02-14T15:59:08.819Z,101793.08
2018-02-14T16:01:37.605Z,101783.17
2018-02-14T16:04:06.047Z,101794.80
2018-02-14T16:06:34.473Z,101787.84
2018-02-14T16:09:03.011Z,101796.28
2018-02-14T16:11:31.516Z,101789.23
2018-02-14T16:14:00.117Z,101801.31
2018-02-14T16:16:30.218Z,101796.50
2018-02-14T16:18:58.926Z,101793.94
2018-02-14T16:21:27.407Z,101803.25
2018-02-14T16:23:56.398Z,101798.48
2018-02-14T16:26:24.985Z,101798.92
2018-02-14T16:28:53.497Z,101802.16
2018-02-14T16:31:23.917Z,101789.08
2018-02-14T16:33:52.763Z,101802.48
2018-02-14T16:36:21.372Z,101797.75
2018-02-14T16:38:51.753Z,101794.70
2018-02-14T16:41:21.001Z,101799.66
2018-02-14T16:43:49.649Z,101801.06
2018-02-14T16:46:24.953Z,101806.44
2018-02-14T16:48:54.217Z,101801.73
2018-02-14T16:51:24.001Z,101801.75
2018-02-14T16:53:52.877Z,101807.08
2018-02-14T16:56:21.358Z,101812.87
2018-02-14T16:58:49.844Z,101820.09
2018-02-14T17:01:19.499Z,101816.16
2018-02-14T17:03:48.241Z,101809.34
2018-02-14T17:06:17.491Z,101815.90
2018-02-14T17:08:46.145Z,101809.86
2018-02-14T17:11:15.522Z,101816.52
2018-02-14T17:13:44.029Z,101810.90
2018-02-14T17:16:12.609Z,101822.81
2018-02-14T17:18:41.030Z,101819.30
2018-02-14T17:21:09.503Z,101824.59
2018-02-14T17:23:37.996Z,101828.69
2018-02-14T17:26:06.422Z,101820.81
2018-02-14T17:28:34.917Z,101831.00
2018-02-14T17:31:04.013Z,101828.38
2018-02-14T17:33:32.428Z,101827.52
2018-02-14T17:36:00.862Z,101827.61
2018-02-14T17:38:29.877Z,101831.16
2018-02-14T17:40:58.357Z,101832.12
2018-02-14T17:43:26.950Z,101832.05
2018-02-14T17:45:55.987Z,101838.78
2018-02-14T17:48:24.415Z,101837.48
2018-02-14T17:50:53.696Z,101833.11
2018-02-14T17:53:22.299Z,101832.72
2018-02-14T17:55:50.709Z,101830.56
2018-02-14T17:58:19.134Z,101833.29
2018-02-14T18:00:48.582Z,101831.54
2018-02-14T18:03:17.032Z,101818.41
2018-02-14T18:05:45.495Z,101822.87
2018-02-14T18:08:14.050Z,101825.98
2018-02-14T18:10:43.088Z,101827.71
2018-02-14T18:13:11.674Z,101822.52
2018-02-14T18:15:40.662Z,101816.35
2018-02-14T18:18:09.318Z,101816.38
2018-02-14T18:20:38.431Z,101822.55
2018-02-14T18:23:08.287Z,101814.23
2018-02-14T18:25:36.936Z,101816.44
2018-02-14T18:28:05.493Z,101815.59
2018-02-14T18:30:34.267Z,101818.28
2018-02-14T18:33:02.769Z,101824.48
2018-02-14T18:35:32.619Z,101816.62
2018-02-14T18:38:01.720Z,101811.38
2018-02-14T18:40:30.154Z,101807.42
2018-02-14T18:42:58.562Z,101809.63
2018-02-14T18:45:27.828Z,101807.55
2018-02-14T18:47:56.259Z,101814.23
2018-02-14T18:50:24.690Z,101801.59
2018-02-14T18:52:53.174Z,101798.96
2018-02-14T18:55:21.659Z,101792.49
2018-02-14T18:57:50.174Z,101787.23
2018-02-14T19:00:18.710Z,101786.36
2018-02-14T19:02:47.198Z,101789.51
2018-02-14T19:05:15.771Z,101792.14
2018-02-14T19:07:44.782Z,101791.79
2018-02-14T19:10:13.268Z,101784.27
2018-02-14T19:12:41.722Z,101780.77
2018-02-14T19:15:11.040Z,101778.17
2018-02-14T19:17:39.582Z,101771.09
2018-02-14T19:20:08.483Z,101776.78
2018-02-14T19:22:38.074Z,101763.70
2018-02-14T19:25:06.524Z,101756.77
2018-02-14T19:27:35.059Z,101754.14
2018-02-14T19:30:05.206Z,101762.05
2018-02-14T19:32:33.753Z,101769.56
2018-02-14T19:35:03.425Z,101769.58
2018-02-14T19:37:32.971Z,101773.08
2018-02-14T19:40:01.429Z,101769.55
2018-02-14T19:42:29.892Z,101774.83
2018-02-14T19:44:59.434Z,101784.48
2018-02-14T19:47:28.273Z,101779.22
2018-02-14T19:49:56.724Z,101784.10
2018-02-14T19:52:26.340Z,101774.52
2018-02-14T19:54:54.876Z,101776.16
2018-02-14T19:57:24.377Z,101792.48
2018-02-14T19:59:53.827Z,101782.77
2018-02-14T20:02:22.384Z,101790.32
2018-02-14T20:04:50.957Z,101778.58
2018-02-14T20:07:19.557Z,101787.88
2018-02-14T20:09:48.014Z,101786.11
2018-02-14T20:12:16.567Z,101770.81
2018-02-14T20:14:45.680Z,101780.53
2018-02-14T20:17:14.294Z,101776.61
2018-02-14T20:19:43.034Z,101779.27
2018-02-14T20:22:12.135Z,101792.78
2018-02-14T20:24:40.773Z,101788.02
2018-02-14T20:27:09.375Z,101789.11
2018-02-14T20:29:39.899Z,101783.81
2018-02-14T20:32:08.651Z,101774.64
2018-02-14T20:34:37.959Z,101775.97
2018-02-14T20:37:07.493Z,101765.04
2018-02-14T20:39:36.072Z,101763.35
2018-02-14T20:42:06.574Z,101759.02
2018-02-14T20:44:35.280Z,101753.78
2018-02-14T20:47:04.009Z,101742.35
2018-02-14T20:49:32.662Z,101737.57
2018-02-14T20:52:03.711Z,101729.63
2018-02-14T20:54:32.615Z,101724.84
2018-02-14T20:57:01.094Z,101725.34
2018-02-14T20:59:29.598Z,101727.11
2018-02-14T21:01:58.133Z,101722.24
2018-02-14T21:04:26.665Z,101725.78
2018-02-14T21:06:55.759Z,101719.67
2018-02-14T21:09:24.235Z,101713.47
2018-02-14T21:11:52.702Z,101709.48
2018-02-14T21:14:22.018Z,101699.88
2018-02-14T21:16:50.655Z,101698.59
2018-02-14T21:19:19.118Z,101700.82
2018-02-14T21:21:47.613Z,101695.80
2018-02-14T21:24:16.067Z,101695.41
2018-02-14T21:26:45.339Z,101700.24
2018-02-14T21:29:14.336Z,101699.38
2018-02-14T21:31:42.817Z,101703.76
2018-02-14T21:34:11.637Z,101705.92
2018-02-14T21:36:40.732Z,101702.39
2018-02-14T21:39:09.468Z,101706.33
2018-02-14T21:41:38.175Z,101703.23
2018-02-14T21:44:07.165Z,101698.86
2018-02-14T21:46:35.645Z,101701.91
2018-02-14T21:49:04.231Z,101707.26
2018-02-14T21:51:34.403Z,101702.07
2018-02-14T21:54:02.933Z,101693.20
2018-02-14T21:56:31.402Z,101697.50
2018-02-14T21:59:00.103Z,101687.94
2018-02-14T22:01:28.610Z,101682.75
2018-02-14T22:03:57.058Z,101680.15
2018-02-14T22:06:25.566Z,101675.78
2018-02-14T22:08:54.017Z,101669.67
2018-02-14T22:11:22.481Z,101674.07
2018-02-14T22:13:50.985Z,101679.86
2018-02-14T22:16:19.462Z,101679.78
2018-02-14T22:18:47.915Z,101685.45
2018-02-14T22:21:17.025Z,101687.27
2018-02-14T22:23:45.467Z,101696.45
2018-02-14T22:26:13.962Z,101692.07
2018-02-14T22:28:44.526Z,101693.49
2018-02-14T22:31:12.985Z,101691.36
2018-02-14T22:33:41.600Z,101692.25
2018-02-14T22:36:10.637Z,101691.82
2018-02-14T22:38:39.182Z,101698.02
2018-02-14T22:41:07.692Z,101693.20
2018-02-14T22:43:37.437Z,101703.27
2018-02-14T22:46:05.904Z,101700.72
2018-02-14T22:48:34.455Z,101692.45
2018-02-14T22:51:03.511Z,101689.00
2018-02-14T22:53:31.931Z,101681.95
2018-02-14T22:56:00.401Z,101685.86
2018-02-14T22:58:29.088Z,101688.13
2018-02-14T23:00:57.556Z,101691.17
2018-02-14T23:03:26.004Z,101684.13
2018-02-14T23:05:54.617Z,101689.44
2018-02-14T23:08:23.083Z,101690.31
2018-02-14T23:10:51.518Z,101686.45
2018-02-14T23:13:20.361Z,101681.63
2018-02-14T23:15:48.965Z,101681.22
2018-02-14T23:18:17.429Z,101673.77
2018-02-14T23:20:45.972Z,101681.18
2018-02-14T23:23:14.438Z,101669.31
2018-02-14T23:25:42.918Z,101670.15
2018-02-14T23:28:11.701Z,101666.20
2018-02-14T23:30:40.321Z,101668.05
2018-02-14T23:33:08.925Z,101661.06
2018-02-14T23:35:37.470Z,101657.56
2018-02-14T23:38:06.188Z,101661.44
2018-02-14T23:40:34.832Z,101662.30
2018-02-14T23:43:04.158Z,101664.08
2018-02-14T23:45:32.687Z,101660.97
2018-02-14T23:48:01.122Z,101666.71
2018-02-14T23:50:29.680Z,101668.89
2018-02-14T23:52:58.123Z,101664.44
2018-02-14T23:55:26.736Z,101674.03
2018-02-14T23:57:55.261Z,101675.28
